createdAt,value
2018-05-14T00:01:56.407Z,100731.81
2018-05-14T00:04:26.489Z,100733.02
2018-05-14T00:06:55.553Z,100734.80
2018-05-14T00:09:23.865Z,100738.63
2018-05-14T00:11:52.136Z,100733.91
2018-05-14T00:14:20.532Z,100729.81
2018-05-14T00:16:49.099Z,100730.69
2018-05-14T00:19:17.514Z,100732.61
2018-05-14T00:21:45.823Z,100722.38
2018-05-14T00:24:14.111Z,100719.28
2018-05-14T00:26:42.435Z,100717.52
2018-05-14T00:29:10.872Z,100717.28
2018-05-14T00:31:39.941Z,100713.94
2018-05-14T00:34:09.110Z,100720.98
2018-05-14T00:36:37.500Z,100712.47
2018-05-14T00:39:06.008Z,100709.66
2018-05-14T00:41:34.380Z,100702.50
2018-05-14T00:44:03.817Z,100706.45
2018-05-14T00:46:33.130Z,100710.42
2018-05-14T00:49:01.426Z,100701.19
2018-05-14T00:51:29.735Z,100696.73
2018-05-14T00:53:58.121Z,100702.38
2018-05-14T00:56:26.420Z,100691.50
2018-05-14T00:58:54.711Z,100687.95
2018-05-14T01:01:22.991Z,100696.53
2018-05-14T01:03:51.360Z,100695.70
2018-05-14T01:06:19.647Z,100706.02
2018-05-14T01:08:47.930Z,100706.48
2018-05-14T01:11:17.093Z,100707.02
2018-05-14T01:13:45.465Z,100700.55
2018-05-14T01:16:13.744Z,100696.91
2018-05-14T01:18:42.058Z,100698.27
2018-05-14T01:21:10.445Z,100700.02
2018-05-14T01:23:38.874Z,100697.00
2018-05-14T01:26:07.188Z,100683.03
2018-05-14T01:28:36.360Z,100692.03
2018-05-14T01:31:05.518Z,100691.03
2018-05-14T01:33:33.904Z,100693.74
2018-05-14T01:36:02.959Z,100684.49
2018-05-14T01:38:31.303Z,100685.45
2018-05-14T01:40:59.696Z,100683.71
2018-05-14T01:43:28.860Z,100689.80
2018-05-14T01:45:57.214Z,100692.00
2018-05-14T01:48:25.504Z,100695.41
2018-05-14T01:50:53.921Z,100689.72
2018-05-14T01:53:23.097Z,100691.37
2018-05-14T01:55:52.204Z,100691.17
2018-05-14T01:58:20.451Z,100684.56
2018-05-14T02:00:50.747Z,100687.72
2018-05-14T02:03:19.023Z,100684.56
2018-05-14T02:05:47.324Z,100687.08
2018-05-14T02:08:15.613Z,100687.68
2018-05-14T02:10:43.951Z,100683.56
2018-05-14T02:13:12.229Z,100677.92
2018-05-14T02:15:40.575Z,100680.03
2018-05-14T02:18:09.686Z,100680.11
2018-05-14T02:20:37.993Z,100678.63
2018-05-14T02:23:06.296Z,100683.41
2018-05-14T02:25:34.780Z,100673.82
2018-05-14T02:28:03.190Z,100688.19
2018-05-14T02:30:31.543Z,100683.85
2018-05-14T02:33:00.280Z,100685.67
2018-05-14T02:35:29.714Z,100685.56
2018-05-14T02:37:58.345Z,100683.83
2018-05-14T02:40:28.406Z,100685.49
2018-05-14T02:42:56.692Z,100680.77
2018-05-14T02:45:25.124Z,100672.51
2018-05-14T02:47:53.427Z,100676.94
2018-05-14T02:50:23.304Z,100676.82
2018-05-14T02:52:51.691Z,100675.45
2018-05-14T02:55:19.986Z,100678.32
2018-05-14T02:57:48.381Z,100680.03
2018-05-14T03:00:16.656Z,100676.13
2018-05-14T03:02:45.054Z,100681.02
2018-05-14T03:05:13.345Z,100674.63
2018-05-14T03:07:41.635Z,100673.90
2018-05-14T03:10:10.691Z,100673.92
2018-05-14T03:12:38.972Z,100676.87
2018-05-14T03:15:07.328Z,100673.06
2018-05-14T03:17:35.823Z,100669.22
2018-05-14T03:20:04.937Z,100677.84
2018-05-14T03:22:33.377Z,100666.53
2018-05-14T03:25:01.651Z,100672.09
2018-05-14T03:27:29.957Z,100671.68
2018-05-14T03:29:58.232Z,100675.36
2018-05-14T03:32:26.606Z,100679.51
2018-05-14T03:34:54.890Z,100683.20
2018-05-14T03:37:23.412Z,100679.48
2018-05-14T03:39:51.705Z,100686.02
2018-05-14T03:42:20.002Z,100687.78
2018-05-14T03:44:48.266Z,100689.99
2018-05-14T03:47:17.464Z,100683.20
2018-05-14T03:49:45.780Z,100682.30
2018-05-14T03:52:14.093Z,100694.77
2018-05-14T03:54:43.159Z,100684.37
2018-05-14T03:57:11.549Z,100680.36
2018-05-14T03:59:57.489Z,100680.84
2018-05-14T04:02:43.693Z,100687.28
2018-05-14T04:05:19.821Z,100691.18
2018-05-14T04:07:48.869Z,100688.56
2018-05-14T04:10:17.225Z,100694.63
2018-05-14T04:12:46.327Z,100694.20
2018-05-14T04:15:15.382Z,100690.70
2018-05-14T04:17:43.658Z,100691.08
2018-05-14T04:20:12.959Z,100693.70
2018-05-14T04:22:41.235Z,100688.36
2018-05-14T04:25:10.287Z,100681.14
2018-05-14T04:27:38.578Z,100684.78
2018-05-14T04:30:06.943Z,100682.13
2018-05-14T04:32:35.149Z,100682.50
2018-05-14T04:35:03.458Z,100678.88
2018-05-14T04:37:31.742Z,100668.06
2018-05-14T04:39:59.998Z,100668.45
2018-05-14T04:42:28.292Z,100664.03
2018-05-14T04:44:57.341Z,100667.95
2018-05-14T04:47:25.702Z,100655.59
2018-05-14T04:49:54.017Z,100655.56
2018-05-14T04:52:22.366Z,100652.48
2018-05-14T04:54:51.444Z,100652.83
2018-05-14T04:57:19.751Z,100649.67
2018-05-14T04:59:48.827Z,100651.31
2018-05-14T05:02:17.124Z,100653.66
2018-05-14T05:04:45.423Z,100658.89
2018-05-14T05:07:13.706Z,100664.45
2018-05-14T05:09:42.149Z,100659.99
2018-05-14T05:12:11.273Z,100655.83
2018-05-14T05:14:39.581Z,100659.23
2018-05-14T05:17:07.902Z,100661.80
2018-05-14T05:19:36.897Z,100668.80
2018-05-14T05:22:05.160Z,100673.52
2018-05-14T05:24:33.436Z,100684.20
2018-05-14T05:27:01.750Z,100684.05
2018-05-14T05:29:30.007Z,100689.23
2018-05-14T05:31:58.303Z,100687.81
2018-05-14T05:34:26.609Z,100679.53
2018-05-14T05:36:54.993Z,100674.37
2018-05-14T05:39:23.421Z,100662.14
2018-05-14T05:41:51.802Z,100654.95
2018-05-14T05:44:20.092Z,100660.41
2018-05-14T05:46:48.476Z,100662.62
2018-05-14T05:49:16.856Z,100669.62
2018-05-14T05:51:45.151Z,100674.52
2018-05-14T05:54:15.694Z,100677.23
2018-05-14T05:56:45.116Z,100681.97
2018-05-14T05:59:13.549Z,100680.92
2018-05-14T06:01:41.847Z,100692.07
2018-05-14T06:04:10.403Z,100693.56
2018-05-14T06:06:38.686Z,100691.80
2018-05-14T06:09:07.075Z,100691.53
2018-05-14T06:11:35.462Z,100694.55
2018-05-14T06:14:03.739Z,100693.56
2018-05-14T06:16:32.778Z,100695.30
2018-05-14T06:19:01.157Z,100697.55
2018-05-14T06:21:29.564Z,100701.91
2018-05-14T06:23:58.654Z,100706.56
2018-05-14T06:26:26.968Z,100698.67
2018-05-14T06:28:55.328Z,100705.72
2018-05-14T06:31:23.631Z,100697.67
2018-05-14T06:33:52.023Z,100705.79
2018-05-14T06:36:20.317Z,100705.95
2018-05-14T06:38:48.575Z,100707.31
2018-05-14T06:41:17.627Z,100706.92
2018-05-14T06:43:45.901Z,100710.97
2018-05-14T06:46:14.294Z,100711.95
2018-05-14T06:48:42.634Z,100708.84
2018-05-14T06:51:11.800Z,100713.60
2018-05-14T06:53:40.194Z,100718.91
2018-05-14T06:56:08.581Z,100724.36
2018-05-14T06:58:36.869Z,100722.19
2018-05-14T07:01:05.239Z,100724.50
2018-05-14T07:03:34.311Z,100724.22
2018-05-14T07:06:02.576Z,100726.72
2018-05-14T07:08:30.855Z,100723.54
2018-05-14T07:10:59.150Z,100719.81
2018-05-14T07:13:27.420Z,100725.18
2018-05-14T07:15:56.649Z,100714.02
2018-05-14T07:18:25.739Z,100714.36
2018-05-14T07:20:54.867Z,100708.83
2018-05-14T07:23:23.188Z,100712.84
2018-05-14T07:25:52.436Z,100706.89
2018-05-14T07:28:20.811Z,100704.94
2018-05-14T07:30:49.069Z,100706.20
2018-05-14T07:33:17.454Z,100707.00
2018-05-14T07:35:45.736Z,100698.00
2018-05-14T07:38:14.849Z,100706.91
2018-05-14T07:40:43.248Z,100700.85
2018-05-14T07:43:11.513Z,100693.88
2018-05-14T07:45:40.540Z,100705.09
2018-05-14T07:48:08.813Z,100701.87
2018-05-14T07:50:37.839Z,100697.28
2018-05-14T07:53:06.121Z,100700.95
2018-05-14T07:55:35.183Z,100697.61
2018-05-14T07:58:03.455Z,100701.81
2018-05-14T08:00:31.720Z,100705.41
2018-05-14T08:03:00.025Z,100710.31
2018-05-14T08:05:28.302Z,100709.27
2018-05-14T08:07:56.577Z,100712.20
2018-05-14T08:10:25.680Z,100707.94
2018-05-14T08:12:54.816Z,100706.44
2018-05-14T08:15:23.197Z,100701.37
2018-05-14T08:17:52.247Z,100703.25
2018-05-14T08:20:20.518Z,100702.16
2018-05-14T08:22:48.793Z,100714.17
2018-05-14T08:25:17.177Z,100705.17
2018-05-14T08:27:45.443Z,100711.27
2018-05-14T08:30:14.487Z,100706.61
2018-05-14T08:32:42.767Z,100707.25
2018-05-14T08:35:11.055Z,100708.79
2018-05-14T08:37:39.351Z,100702.22
2018-05-14T08:40:08.401Z,100705.36
2018-05-14T08:42:36.679Z,100698.47
2018-05-14T08:45:05.003Z,100704.58
2018-05-14T08:47:33.324Z,100701.33
2018-05-14T08:50:02.343Z,100703.81
2018-05-14T08:52:30.625Z,100706.91
2018-05-14T08:54:59.655Z,100698.66
2018-05-14T08:57:27.912Z,100700.58
2018-05-14T08:59:56.970Z,100703.57
2018-05-14T09:02:25.267Z,100702.19
2018-05-14T09:04:53.719Z,100704.17
2018-05-14T09:07:23.055Z,100710.70
2018-05-14T09:09:51.364Z,100709.81
2018-05-14T09:12:19.653Z,100699.68
2018-05-14T09:14:47.938Z,100699.39
2018-05-14T09:17:16.312Z,100703.92
2018-05-14T09:19:44.690Z,100696.92
2018-05-14T09:22:13.016Z,100692.59
2018-05-14T09:24:41.373Z,100701.01
2018-05-14T09:27:09.635Z,100699.21
2018-05-14T09:29:38.693Z,100700.66
2018-05-14T09:32:06.986Z,100701.74
2018-05-14T09:34:35.274Z,100705.97
2018-05-14T09:37:03.638Z,100703.57
2018-05-14T09:39:32.699Z,100700.89
2018-05-14T09:42:00.997Z,100696.77
2018-05-14T09:44:29.261Z,100697.45
2018-05-14T09:46:57.628Z,100699.94
2018-05-14T09:49:25.914Z,100698.79
2018-05-14T09:51:54.210Z,100692.95
2018-05-14T09:54:22.499Z,100702.91
2018-05-14T09:56:50.777Z,100696.48
2018-05-14T09:59:19.027Z,100692.73
2018-05-14T10:01:47.327Z,100684.66
2018-05-14T10:04:15.646Z,100683.50
2018-05-14T10:06:44.864Z,100684.42
2018-05-14T10:09:13.159Z,100674.30
2018-05-14T10:11:41.430Z,100675.00
2018-05-14T10:14:10.552Z,100680.97
2018-05-14T10:16:38.803Z,100677.39
2018-05-14T10:19:07.071Z,100678.23
2018-05-14T10:21:35.455Z,100677.64
2018-05-14T10:24:03.650Z,100676.20
2018-05-14T10:26:31.903Z,100677.16
2018-05-14T10:29:00.187Z,100673.96
2018-05-14T10:31:29.231Z,100686.19
2018-05-14T10:33:57.492Z,100677.09
2018-05-14T10:36:25.897Z,100687.92
2018-05-14T10:38:54.196Z,100677.28
2018-05-14T10:41:22.550Z,100682.42
2018-05-14T10:43:50.887Z,100680.69
2018-05-14T10:46:19.146Z,100684.58
2018-05-14T10:48:47.426Z,100683.47
2018-05-14T10:51:16.457Z,100685.28
2018-05-14T10:53:44.810Z,100679.83
2018-05-14T10:56:13.076Z,100679.91
2018-05-14T10:58:41.392Z,100673.50
2018-05-14T11:01:09.722Z,100677.78
2018-05-14T11:03:37.980Z,100685.88
2018-05-14T11:06:07.014Z,100684.57
2018-05-14T11:08:35.292Z,100682.14
2018-05-14T11:11:04.366Z,100686.02
2018-05-14T11:13:32.615Z,100683.83
2018-05-14T11:16:00.904Z,100675.28
2018-05-14T11:18:29.167Z,100671.31
2018-05-14T11:20:58.193Z,100676.39
2018-05-14T11:23:27.479Z,100681.14
2018-05-14T11:25:56.541Z,100675.70
2018-05-14T11:28:24.858Z,100680.98
2018-05-14T11:30:53.153Z,100678.11
2018-05-14T11:33:21.431Z,100674.70
2018-05-14T11:35:49.774Z,100679.66
2018-05-14T11:38:18.060Z,100678.55
2018-05-14T11:40:47.095Z,100684.25
2018-05-14T11:43:15.392Z,100680.53
2018-05-14T11:45:43.765Z,100669.25
2018-05-14T11:48:12.040Z,100666.64
2018-05-14T11:50:41.178Z,100675.10
2018-05-14T11:53:09.422Z,100671.84
2018-05-14T11:55:37.685Z,100672.39
2018-05-14T11:58:05.955Z,100667.73
2018-05-14T12:00:34.483Z,100665.77
2018-05-14T12:03:02.869Z,100664.80
2018-05-14T12:05:31.090Z,100666.31
2018-05-14T12:08:00.187Z,100674.89
2018-05-14T12:10:29.300Z,100667.05
2018-05-14T12:12:57.580Z,100665.47
2018-05-14T12:15:27.451Z,100667.68
2018-05-14T12:17:55.836Z,100663.13
2018-05-14T12:20:24.231Z,100661.45
2018-05-14T12:22:52.541Z,100665.05
2018-05-14T12:25:20.819Z,100667.56
2018-05-14T12:27:49.106Z,100665.67
2018-05-14T12:30:17.384Z,100667.83
2018-05-14T12:32:45.644Z,100668.32
2018-05-14T12:35:13.918Z,100662.54
2018-05-14T12:37:42.199Z,100662.22
2018-05-14T12:40:10.467Z,100667.39
2018-05-14T12:42:38.841Z,100657.75
2018-05-14T12:45:07.895Z,100654.48
2018-05-14T12:47:36.159Z,100657.38
2018-05-14T12:50:04.437Z,100651.05
2018-05-14T12:52:32.735Z,100654.82
2018-05-14T12:55:01.113Z,100652.31
2018-05-14T12:57:29.393Z,100646.17
2018-05-14T12:59:58.459Z,100652.25
2018-05-14T13:02:26.914Z,100658.27
2018-05-14T13:04:55.220Z,100648.18
2018-05-14T13:07:23.515Z,100651.13
2018-05-14T13:09:52.396Z,100652.53
2018-05-14T13:12:20.656Z,100652.89
2018-05-14T13:14:48.945Z,100651.97
2018-05-14T13:17:18.092Z,100656.73
2018-05-14T13:19:46.336Z,100652.78
2018-05-14T13:22:14.661Z,100654.97
2018-05-14T13:24:43.698Z,100645.84
2018-05-14T13:27:11.977Z,100646.50
2018-05-14T13:29:40.297Z,100643.09
2018-05-14T13:32:08.629Z,100645.20
2018-05-14T13:34:36.860Z,100648.97
2018-05-14T13:37:05.155Z,100636.85
2018-05-14T13:39:33.427Z,100647.61
2018-05-14T13:42:01.806Z,100642.48
2018-05-14T13:44:30.095Z,100645.36
2018-05-14T13:46:59.109Z,100639.72
2018-05-14T13:49:27.400Z,100638.55
2018-05-14T13:51:55.749Z,100640.77
2018-05-14T13:54:24.077Z,100633.52
2018-05-14T13:56:52.411Z,100630.30
2018-05-14T13:59:20.728Z,100631.56
2018-05-14T14:01:49.045Z,100633.97
2018-05-14T14:04:18.068Z,100641.55
2018-05-14T14:06:46.345Z,100642.04
2018-05-14T14:09:14.615Z,100627.06
2018-05-14T14:11:43.636Z,100640.24
2018-05-14T14:14:11.908Z,100620.11
2018-05-14T14:16:40.930Z,100621.42
2018-05-14T14:19:09.967Z,100621.41
2018-05-14T14:21:38.251Z,100622.41
2018-05-14T14:24:06.806Z,100617.39
2018-05-14T14:26:35.755Z,100620.30
2018-05-14T14:29:04.135Z,100626.53
2018-05-14T14:31:32.421Z,100621.51
2018-05-14T14:34:00.751Z,100620.19
2018-05-14T14:36:29.223Z,100619.55
2018-05-14T14:38:57.409Z,100621.45
2018-05-14T14:41:25.893Z,100612.39
2018-05-14T14:43:54.162Z,100612.08
2018-05-14T14:46:22.525Z,100612.22
2018-05-14T14:48:50.760Z,100615.16
2018-05-14T14:51:19.053Z,100610.13
2018-05-14T14:53:47.330Z,100611.16
2018-05-14T14:56:16.601Z,100604.16
2018-05-14T14:58:44.951Z,100610.44
2018-05-14T15:01:13.963Z,100609.01
2018-05-14T15:03:42.244Z,100608.64
2018-05-14T15:06:10.517Z,100612.42
2018-05-14T15:08:39.529Z,100603.52
2018-05-14T15:11:08.573Z,100602.63
2018-05-14T15:13:36.857Z,100603.71
2018-05-14T15:16:05.134Z,100605.10
2018-05-14T15:18:34.327Z,100616.36
2018-05-14T15:21:03.377Z,100612.05
2018-05-14T15:23:31.633Z,100613.67
2018-05-14T15:25:59.931Z,100617.95
2018-05-14T15:28:28.226Z,100619.94
2018-05-14T15:30:56.514Z,100605.44
2018-05-14T15:33:24.776Z,100608.96
2018-05-14T15:35:53.644Z,100611.28
2018-05-14T15:38:21.996Z,100607.78
2018-05-14T15:40:50.260Z,100608.88
2018-05-14T15:43:18.539Z,100603.11
2018-05-14T15:45:46.840Z,100598.32
2018-05-14T15:48:15.159Z,100606.30
2018-05-14T15:50:43.464Z,100599.34
2018-05-14T15:53:11.901Z,100600.13
2018-05-14T15:55:40.197Z,100600.19
2018-05-14T15:58:08.483Z,100588.05
2018-05-14T16:00:36.759Z,100593.77
2018-05-14T16:03:05.819Z,100589.70
2018-05-14T16:05:34.849Z,100604.00
2018-05-14T16:08:03.205Z,100603.26
2018-05-14T16:10:31.392Z,100597.53
2018-05-14T16:13:00.514Z,100593.06
2018-05-14T16:15:29.622Z,100594.37
2018-05-14T16:17:57.921Z,100600.10
2018-05-14T16:20:26.311Z,100607.98
2018-05-14T16:22:54.569Z,100608.91
2018-05-14T16:25:22.891Z,100613.39
2018-05-14T16:27:51.151Z,100608.38
2018-05-14T16:30:20.187Z,100604.82
2018-05-14T16:32:48.443Z,100605.38
2018-05-14T16:35:16.768Z,100611.76
2018-05-14T16:37:45.016Z,100612.02
2018-05-14T16:40:13.457Z,100614.70
2018-05-14T16:42:41.759Z,100618.92
2018-05-14T16:45:10.022Z,100617.09
2018-05-14T16:47:39.147Z,100622.72
2018-05-14T16:50:07.427Z,100621.70
2018-05-14T16:52:36.454Z,100627.72
2018-05-14T16:55:04.736Z,100621.38
2018-05-14T16:57:33.063Z,100620.39
2018-05-14T17:00:01.277Z,100621.56
2018-05-14T17:02:29.546Z,100626.48
2018-05-14T17:04:57.824Z,100633.11
2018-05-14T17:07:26.102Z,100627.88
2018-05-14T17:09:54.373Z,100629.34
2018-05-14T17:12:22.673Z,100630.13
2018-05-14T17:14:50.951Z,100622.08
2018-05-14T17:17:19.430Z,100625.93
2018-05-14T17:19:47.631Z,100625.17
2018-05-14T17:22:15.920Z,100621.94
2018-05-14T17:24:44.954Z,100628.48
2018-05-14T17:27:13.229Z,100627.77
2018-05-14T17:29:41.493Z,100628.46
2018-05-14T17:32:10.503Z,100637.79
2018-05-14T17:34:39.563Z,100630.77
2018-05-14T17:37:07.917Z,100628.89
2018-05-14T17:39:37.036Z,100630.13
2018-05-14T17:42:05.287Z,100627.67
2018-05-14T17:44:33.558Z,100630.36
2018-05-14T17:47:01.973Z,100635.09
2018-05-14T17:49:30.496Z,100631.20
2018-05-14T17:52:00.267Z,100636.83
2018-05-14T17:54:29.662Z,100634.72
2018-05-14T17:56:58.490Z,100634.66
2018-05-14T17:59:27.519Z,100634.61
2018-05-14T18:01:56.694Z,100636.76
2018-05-14T18:04:25.044Z,100641.55
2018-05-14T18:06:53.337Z,100636.75
2018-05-14T18:09:21.716Z,100638.58
2018-05-14T18:11:51.031Z,100640.25
2018-05-14T18:14:21.886Z,100645.25
2018-05-14T18:16:51.617Z,100641.47
2018-05-14T18:19:21.590Z,100646.87
2018-05-14T18:21:50.208Z,100643.19
2018-05-14T18:24:18.981Z,100639.34
2018-05-14T18:26:49.778Z,100645.36
2018-05-14T18:38:30.138Z,100660.91
2018-05-14T18:41:01.402Z,100660.37
2018-05-14T18:43:32.644Z,100668.84
2018-05-14T18:46:01.225Z,100667.92
2018-05-14T18:48:29.965Z,100678.16
2018-05-14T18:50:59.745Z,100676.23
2018-05-14T18:53:28.028Z,100680.69
2018-05-14T18:55:56.344Z,100686.69
2018-05-14T18:58:24.789Z,100685.97
2018-05-14T19:00:53.876Z,100689.36
2018-05-14T19:03:22.527Z,100687.34
2018-05-14T19:05:50.909Z,100694.70
2018-05-14T19:08:20.149Z,100695.31
2018-05-14T19:10:53.813Z,100688.64
2018-05-14T19:13:22.872Z,100694.11
2018-05-14T19:15:56.592Z,100694.71
2018-05-14T19:18:24.874Z,100702.88
2018-05-14T19:20:53.159Z,100701.41
2018-05-14T19:23:26.840Z,100701.61
2018-05-14T19:25:55.167Z,100702.95
2018-05-14T19:28:28.972Z,100704.33
2018-05-14T19:30:57.300Z,100707.75
2018-05-14T19:33:30.964Z,100706.52
2018-05-14T19:36:02.379Z,100707.17
2018-05-14T19:38:30.991Z,100709.87
2018-05-14T19:40:59.333Z,100708.30
2018-05-14T19:43:27.629Z,100717.02
2018-05-14T19:45:55.915Z,100723.28
2018-05-14T19:48:24.193Z,100721.84
2018-05-14T19:50:53.312Z,100730.12
2018-05-14T19:53:21.528Z,100727.34
2018-05-14T19:55:49.803Z,100735.06
2018-05-14T19:58:18.078Z,100734.88
2018-05-14T20:00:47.131Z,100735.36
2018-05-14T20:03:15.444Z,100741.46
2018-05-14T20:05:43.716Z,100741.67
2018-05-14T20:08:11.968Z,100745.38
2018-05-14T20:10:40.269Z,100745.25
2018-05-14T20:13:09.304Z,100758.73
2018-05-14T20:15:37.561Z,100752.52
2018-05-14T20:18:06.082Z,100756.23
2018-05-14T20:20:34.913Z,100764.28
2018-05-14T20:23:12.604Z,100767.02
2018-05-14T20:25:42.028Z,100763.86
2018-05-14T20:28:11.364Z,100766.91
2018-05-14T20:30:40.651Z,100774.62
2018-05-14T20:33:09.091Z,100778.16
2018-05-14T20:35:38.122Z,100780.55
2018-05-14T20:38:07.560Z,100782.64
2018-05-14T20:40:35.931Z,100784.42
2018-05-14T20:43:04.206Z,100788.39
2018-05-14T20:45:33.451Z,100793.13
2018-05-14T20:48:03.481Z,100791.50
2018-05-14T20:50:34.809Z,100799.30
2018-05-14T20:53:03.418Z,100799.95
2018-05-14T20:55:33.260Z,100797.91
2018-05-14T20:58:01.597Z,100798.78
2018-05-14T21:00:29.856Z,100807.40
2018-05-14T21:02:58.164Z,100815.34
2018-05-14T21:05:28.214Z,100821.06
2018-05-14T21:07:58.470Z,100825.41
2018-05-14T21:10:28.327Z,100823.93
2018-05-14T21:12:58.116Z,100823.55
2018-05-14T21:15:27.654Z,100832.34
2018-05-14T21:17:57.531Z,100832.27
2018-05-14T21:20:26.614Z,100841.11
2018-05-14T21:22:56.561Z,100842.87
2018-05-14T21:25:26.871Z,100842.25
2018-05-14T21:27:55.924Z,100846.99
2018-05-14T21:30:25.773Z,100850.53
2018-05-14T21:32:54.512Z,100852.52
2018-05-14T21:35:23.987Z,100853.84
2018-05-14T21:37:52.347Z,100857.14
2018-05-14T21:40:20.702Z,100860.29
2018-05-14T21:42:49.730Z,100855.70
2018-05-14T21:45:18.007Z,100857.99
2018-05-14T21:47:46.614Z,100859.27
2018-05-14T21:50:14.969Z,100864.48
2018-05-14T21:52:43.222Z,100862.24
2018-05-14T21:55:11.802Z,100865.03
2018-05-14T21:57:40.259Z,100865.84
2018-05-14T22:00:10.364Z,100872.26
2018-05-14T22:02:38.755Z,100870.08
2018-05-14T22:05:07.768Z,100866.08
2018-05-14T22:07:36.814Z,100870.61
2018-05-14T22:10:05.110Z,100870.37
2018-05-14T22:12:33.610Z,100870.92
2018-05-14T22:15:01.869Z,100870.67
2018-05-14T22:17:30.904Z,100869.33
2018-05-14T22:19:59.191Z,100872.33
2018-05-14T22:22:27.448Z,100872.99
2018-05-14T22:24:55.734Z,100867.86
2018-05-14T22:27:23.988Z,100876.38
2018-05-14T22:29:52.259Z,100870.95
2018-05-14T22:32:20.536Z,100879.22
2018-05-14T22:34:48.797Z,100877.72
2018-05-14T22:37:17.941Z,100878.97
2018-05-14T22:39:46.967Z,100874.75
2018-05-14T22:42:15.239Z,100876.72
2018-05-14T22:44:43.521Z,100882.04
2018-05-14T22:47:12.631Z,100876.48
2018-05-14T22:49:41.316Z,100875.59
2018-05-14T22:52:10.348Z,100875.47
2018-05-14T22:54:38.624Z,100869.69
2018-05-14T22:57:07.944Z,100873.02
2018-05-14T22:59:37.144Z,100869.53
2018-05-14T23:02:06.471Z,100871.89
2018-05-14T23:04:34.735Z,100870.49
2018-05-14T23:07:03.840Z,100868.89
2018-05-14T23:09:32.372Z,100873.61
2018-05-14T23:12:01.016Z,100868.20
2018-05-14T23:14:29.289Z,100875.59
2018-05-14T23:16:58.152Z,100878.78
2018-05-14T23:19:28.470Z,100875.84
2018-05-14T23:21:59.407Z,100878.41
2018-05-14T23:24:27.855Z,100874.43
2018-05-14T23:26:56.116Z,100877.52
2018-05-14T23:29:24.391Z,100876.45
2018-05-14T23:31:52.695Z,100871.98
2018-05-14T23:34:20.976Z,100876.19
2018-05-14T23:36:49.306Z,100884.37
2018-05-14T23:39:17.746Z,100885.72
2018-05-14T23:41:46.154Z,100880.35
2018-05-14T23:44:16.243Z,100888.13
2018-05-14T23:46:44.498Z,100888.75
2018-05-14T23:49:12.805Z,100887.04
2018-05-14T23:51:41.106Z,100891.83
2018-05-14T23:54:09.415Z,100885.77
2018-05-14T23:56:37.704Z,100883.62
2018-05-14T23:59:06.076Z,100890.95
